sensor_id;sensor_type;location;lat;lon;timestamp;pressure;altitude;pressure_sealevel;temperature;humidity
26087;BME280;13851;43.434;28.338;2022-11-18T00:02:03;98954.19;;;12.47;100.00
26087;BME280;13851;43.434;28.338;2022-11-18T00:04:29;98806.38;;;11.73;100.00
26087;BME280;13851;43.434;28.338;2022-11-18T00:06:54;98882.88;;;12.21;100.00
26087;BME280;13851;43.434;28.338;2022-11-18T00:09:20;98680.00;;;11.03;100.00
26087;BME280;13851;43.434;28.338;2022-11-18T00:11:45;98900.56;;;12.32;100.00
26087;BME280;13851;43.434;28.338;2022-11-18T00:14:29;98926.66;;;12.61;100.00
26087;BME280;13851;43.434;28.338;2022-11-18T00:17:05;98910.94;;;12.23;100.00
26087;BME280;13851;43.434;28.338;2022-11-18T00:19:35;98805.72;;;11.71;100.00
26087;BME280;13851;43.434;28.338;2022-11-18T00:22:03;98946.09;;;12.66;100.00
26087;BME280;13851;43.434;28.338;2022-11-18T00:24:29;98862.66;;;12.02;100.00
26087;BME280;13851;43.434;28.338;2022-11-18T00:26:55;98778.16;;;11.53;100.00
26087;BME280;13851;43.434;28.338;2022-11-18T00:29:20;98953.75;;;12.51;100.00
26087;BME280;13851;43.434;28.338;2022-11-18T00:31:46;98764.19;;;11.61;100.00
26087;BME280;13851;43.434;28.338;2022-11-18T00:34:14;98897.16;;;12.43;100.00
26087;BME280;13851;43.434;28.338;2022-11-18T00:36:41;98940.94;;;12.83;100.00
26087;BME280;13851;43.434;28.338;2022-11-18T00:39:07;98854.16;;;12.23;100.00
26087;BME280;13851;43.434;28.338;2022-11-18T00:41:32;98927.66;;;12.73;100.00
26087;BME280;13851;43.434;28.338;2022-11-18T00:44:16;98905.13;;;12.58;100.00
26087;BME280;13851;43.434;28.338;2022-11-18T00:46:42;98882.00;;;12.27;100.00
26087;BME280;13851;43.434;28.338;2022-11-18T00:49:08;98957.84;;;12.86;100.00
26087;BME280;13851;43.434;28.338;2022-11-18T00:51:34;98628.47;;;10.47;100.00
26087;BME280;13851;43.434;28.338;2022-11-18T00:54:00;98883.25;;;12.31;100.00
26087;BME280;13851;43.434;28.338;2022-11-18T00:56:26;98812.28;;;11.83;100.00
26087;BME280;13851;43.434;28.338;2022-11-18T00:58:51;98766.31;;;11.59;100.00
26087;BME280;13851;43.434;28.338;2022-11-18T01:01:17;98715.56;;;11.36;100.00
26087;BME280;13851;43.434;28.338;2022-11-18T01:03:42;98852.06;;;12.12;100.00
26087;BME280;13851;43.434;28.338;2022-11-18T01:06:08;98875.31;;;12.10;100.00
26087;BME280;13851;43.434;28.338;2022-11-18T01:08:34;98895.94;;;12.32;100.00
26087;BME280;13851;43.434;28.338;2022-11-18T01:11:00;98910.72;;;12.31;100.00
26087;BME280;13851;43.434;28.338;2022-11-18T01:13:48;98789.31;;;11.51;100.00
26087;BME280;13851;43.434;28.338;2022-11-18T01:16:18;98903.13;;;12.27;100.00
26087;BME280;13851;43.434;28.338;2022-11-18T01:18:44;98660.06;;;10.50;100.00
26087;BME280;13851;43.434;28.338;2022-11-18T01:21:09;98901.72;;;12.04;100.00
26087;BME280;13851;43.434;28.338;2022-11-18T01:23:35;98844.97;;;11.71;100.00
26087;BME280;13851;43.434;28.338;2022-11-18T01:26:06;98836.09;;;11.76;100.00
26087;BME280;13851;43.434;28.338;2022-11-18T01:28:32;98961.88;;;12.26;100.00
26087;BME280;13851;43.434;28.338;2022-11-18T01:31:12;98782.22;;;11.17;100.00
26087;BME280;13851;43.434;28.338;2022-11-18T01:33:38;98673.09;;;10.54;100.00
26087;BME280;13851;43.434;28.338;2022-11-18T01:36:04;98914.41;;;11.99;100.00
26087;BME280;13851;43.434;28.338;2022-11-18T01:38:38;98629.50;;;10.26;100.00
26087;BME280;13851;43.434;28.338;2022-11-18T01:41:04;98760.72;;;10.94;100.00
26087;BME280;13851;43.434;28.338;2022-11-18T01:46:22;98899.84;;;11.91;100.00
26087;BME280;13851;43.434;28.338;2022-11-18T01:48:52;98770.41;;;11.10;100.00
26087;BME280;13851;43.434;28.338;2022-11-18T01:51:20;98921.34;;;12.08;100.00
26087;BME280;13851;43.434;28.338;2022-11-18T01:53:51;98914.41;;;11.99;100.00
26087;BME280;13851;43.434;28.338;2022-11-18T01:56:23;98722.78;;;10.98;100.00
26087;BME280;13851;43.434;28.338;2022-11-18T01:59:00;98892.66;;;12.04;100.00
26087;BME280;13851;43.434;28.338;2022-11-18T02:01:26;98848.16;;;11.75;100.00
26087;BME280;13851;43.434;28.338;2022-11-18T02:03:52;98875.75;;;12.07;100.00
26087;BME280;13851;43.434;28.338;2022-11-18T02:06:18;98869.19;;;12.08;100.00
26087;BME280;13851;43.434;28.338;2022-11-18T02:08:44;98705.91;;;11.14;100.00
26087;BME280;13851;43.434;28.338;2022-11-18T02:11:11;98670.97;;;10.83;100.00
26087;BME280;13851;43.434;28.338;2022-11-18T02:13:58;98721.53;;;11.07;100.00
26087;BME280;13851;43.434;28.338;2022-11-18T02:30:10;98911.06;;;12.48;100.00
26087;BME280;13851;43.434;28.338;2022-11-18T02:32:43;98920.97;;;12.56;100.00
26087;BME280;13851;43.434;28.338;2022-11-18T02:37:47;98868.78;;;12.56;100.00
26087;BME280;13851;43.434;28.338;2022-11-18T02:42:45;98808.53;;;12.22;100.00
26087;BME280;13851;43.434;28.338;2022-11-18T02:45:16;98671.22;;;11.46;100.00
26087;BME280;13851;43.434;28.338;2022-11-18T02:47:45;98864.56;;;12.60;100.00
26087;BME280;13851;43.434;28.338;2022-11-18T02:50:16;98866.22;;;12.61;100.00
26087;BME280;13851;43.434;28.338;2022-11-18T02:52:45;98723.06;;;11.61;100.00
26087;BME280;13851;43.434;28.338;2022-11-18T02:55:12;98698.72;;;11.19;100.00
26087;BME280;13851;43.434;28.338;2022-11-18T02:57:40;98721.97;;;10.64;100.00
26087;BME280;13851;43.434;28.338;2022-11-18T03:00:08;98850.13;;;11.02;100.00
26087;BME280;13851;43.434;28.338;2022-11-18T03:02:45;98912.97;;;11.23;100.00
26087;BME280;13851;43.434;28.338;2022-11-18T03:05:47;98914.63;;;11.24;100.00
26087;BME280;13851;43.434;28.338;2022-11-18T03:08:22;98927.69;;;11.02;100.00
26087;BME280;13851;43.434;28.338;2022-11-18T03:11:20;98911.91;;;11.37;100.00
26087;BME280;13851;43.434;28.338;2022-11-18T03:14:04;98942.69;;;11.39;100.00
26087;BME280;13851;43.434;28.338;2022-11-18T03:16:37;98860.66;;;10.91;100.00
26087;BME280;13851;43.434;28.338;2022-11-18T03:24:30;98772.09;;;10.64;100.00
26087;BME280;13851;43.434;28.338;2022-11-18T03:27:09;98908.31;;;11.50;100.00
26087;BME280;13851;43.434;28.338;2022-11-18T03:29:41;98801.19;;;11.05;100.00
26087;BME280;13851;43.434;28.338;2022-11-18T03:32:16;98873.28;;;11.59;100.00
26087;BME280;13851;43.434;28.338;2022-11-18T03:34:46;98725.31;;;10.79;100.00
26087;BME280;13851;43.434;28.338;2022-11-18T03:37:15;98783.91;;;11.05;100.00
26087;BME280;13851;43.434;28.338;2022-11-18T03:39:49;98734.19;;;10.68;100.00
26087;BME280;13851;43.434;28.338;2022-11-18T03:42:26;98853.88;;;11.40;100.00
26087;BME280;13851;43.434;28.338;2022-11-18T03:44:57;98870.13;;;11.62;100.00
26087;BME280;13851;43.434;28.338;2022-11-18T03:47:28;98897.53;;;11.82;100.00
26087;BME280;13851;43.434;28.338;2022-11-18T03:50:22;98824.81;;;11.26;100.00
26087;BME280;13851;43.434;28.338;2022-11-18T03:52:48;98825.84;;;11.05;100.00
26087;BME280;13851;43.434;28.338;2022-11-18T03:55:19;98908.13;;;11.52;100.00
26087;BME280;13851;43.434;28.338;2022-11-18T04:00:16;98759.91;;;10.80;100.00
26087;BME280;13851;43.434;28.338;2022-11-18T04:02:42;98688.88;;;10.26;100.00
26087;BME280;13851;43.434;28.338;2022-11-18T04:05:11;98717.53;;;10.36;100.00
26087;BME280;13851;43.434;28.338;2022-11-18T04:07:43;98844.63;;;11.15;100.00
26087;BME280;13851;43.434;28.338;2022-11-18T04:10:16;98950.31;;;11.84;100.00
26087;BME280;13851;43.434;28.338;2022-11-18T04:12:56;98923.50;;;11.79;100.00
26087;BME280;13851;43.434;28.338;2022-11-18T04:15:24;98794.03;;;10.84;100.00
26087;BME280;13851;43.434;28.338;2022-11-18T04:17:50;98882.56;;;11.51;100.00
26087;BME280;13851;43.434;28.338;2022-11-18T04:20:20;98904.53;;;11.58;100.00
26087;BME280;13851;43.434;28.338;2022-11-18T04:22:46;98777.16;;;10.67;100.00
26087;BME280;13851;43.434;28.338;2022-11-18T04:25:12;98591.06;;;9.47;100.00
26087;BME280;13851;43.434;28.338;2022-11-18T04:27:38;98739.47;;;10.50;100.00
26087;BME280;13851;43.434;28.338;2022-11-18T04:30:05;98824.81;;;11.06;100.00
26087;BME280;13851;43.434;28.338;2022-11-18T04:32:30;98935.31;;;11.66;100.00
26087;BME280;13851;43.434;28.338;2022-11-18T04:34:56;98828.19;;;11.02;100.00
26087;BME280;13851;43.434;28.338;2022-11-18T04:37:21;98997.16;;;11.82;100.00
26087;BME280;13851;43.434;28.338;2022-11-18T04:39:47;98872.03;;;11.15;100.00
26087;BME280;13851;43.434;28.338;2022-11-18T04:42:12;98968.88;;;11.95;100.00
26087;BME280;13851;43.434;28.338;2022-11-18T04:44:38;98930.03;;;11.38;100.00
26087;BME280;13851;43.434;28.338;2022-11-18T04:47:05;98824.38;;;10.76;100.00
26087;BME280;13851;43.434;28.338;2022-11-18T04:49:32;98973.31;;;11.69;100.00
26087;BME280;13851;43.434;28.338;2022-11-18T04:51:58;98752.69;;;10.33;100.00
26087;BME280;13851;43.434;28.338;2022-11-18T04:54:25;98908.53;;;11.22;100.00
26087;BME280;13851;43.434;28.338;2022-11-18T04:56:51;98993.97;;;11.59;100.00
26087;BME280;13851;43.434;28.338;2022-11-18T04:59:20;98835.09;;;10.64;100.00
26087;BME280;13851;43.434;28.338;2022-11-18T05:01:46;98839.94;;;10.62;100.00
26087;BME280;13851;43.434;28.338;2022-11-18T05:04:20;98998.59;;;11.38;100.00
26087;BME280;13851;43.434;28.338;2022-11-18T05:06:46;98849.22;;;10.61;100.00
26087;BME280;13851;43.434;28.338;2022-11-18T05:09:12;99000.72;;;11.56;100.00
26087;BME280;13851;43.434;28.338;2022-11-18T05:11:38;98980.28;;;11.52;100.00
26087;BME280;13851;43.434;28.338;2022-11-18T05:14:25;98810.00;;;10.48;100.00
26087;BME280;13851;43.434;28.338;2022-11-18T05:16:51;98809.38;;;10.52;100.00
26087;BME280;13851;43.434;28.338;2022-11-18T05:19:17;98963.56;;;11.40;100.00
26087;BME280;13851;43.434;28.338;2022-11-18T05:21:42;98933.00;;;11.37;100.00
26087;BME280;13851;43.434;28.338;2022-11-18T05:24:08;98973.09;;;11.78;100.00
26087;BME280;13851;43.434;28.338;2022-11-18T05:26:33;98997.81;;;12.04;100.00
26087;BME280;13851;43.434;28.338;2022-11-18T05:28:59;98982.19;;;11.98;100.00
26087;BME280;13851;43.434;28.338;2022-11-18T05:31:24;98907.88;;;11.66;100.00
26087;BME280;13851;43.434;28.338;2022-11-18T05:33:50;98850.91;;;11.55;100.00
26087;BME280;13851;43.434;28.338;2022-11-18T05:36:17;98998.31;;;12.53;100.00
26087;BME280;13851;43.434;28.338;2022-11-18T05:38:43;99026.47;;;12.41;100.00
26087;BME280;13851;43.434;28.338;2022-11-18T05:41:09;98979.63;;;12.16;100.00
26087;BME280;13851;43.434;28.338;2022-11-18T05:43:55;98746.81;;;10.69;100.00
26087;BME280;13851;43.434;28.338;2022-11-18T05:46:20;99001.78;;;12.21;100.00
26087;BME280;13851;43.434;28.338;2022-11-18T05:48:46;98951.13;;;11.97;100.00
26087;BME280;13851;43.434;28.338;2022-11-18T05:51:11;98801.22;;;11.12;100.00
26087;BME280;13851;43.434;28.338;2022-11-18T05:53:37;99018.22;;;12.41;100.00
26087;BME280;13851;43.434;28.338;2022-11-18T05:56:08;98992.88;;;12.33;100.00
26087;BME280;13851;43.434;28.338;2022-11-18T05:58:39;98968.19;;;12.26;100.00
26087;BME280;13851;43.434;28.338;2022-11-18T06:01:06;98979.53;;;12.49;100.00
26087;BME280;13851;43.434;28.338;2022-11-18T06:03:35;98780.25;;;11.51;100.00
26087;BME280;13851;43.434;28.338;2022-11-18T06:06:04;98964.25;;;12.67;100.00
26087;BME280;13851;43.434;28.338;2022-11-18T06:08:37;98942.22;;;12.73;100.00
26087;BME280;13851;43.434;28.338;2022-11-18T06:11:04;98962.38;;;13.06;100.00
26087;BME280;13851;43.434;28.338;2022-11-18T06:13:36;98766.78;;;12.07;100.00
26087;BME280;13851;43.434;28.338;2022-11-18T06:16:04;98696.84;;;11.71;100.00
26087;BME280;13851;43.434;28.338;2022-11-18T06:18:30;98906.88;;;12.90;100.00
26087;BME280;13851;43.434;28.338;2022-11-18T06:21:02;98993.63;;;13.81;100.00
26087;BME280;13851;43.434;28.338;2022-11-18T06:23:32;98986.66;;;14.03;100.00
26087;BME280;13851;43.434;28.338;2022-11-18T06:25:59;98975.75;;;13.90;100.00
26087;BME280;13851;43.434;28.338;2022-11-18T06:28:25;99013.34;;;14.46;100.00
26087;BME280;13851;43.434;28.338;2022-11-18T06:30:52;98918.81;;;14.09;100.00
26087;BME280;13851;43.434;28.338;2022-11-18T06:33:17;98904.06;;;14.03;100.00
26087;BME280;13851;43.434;28.338;2022-11-18T06:35:43;98929.53;;;14.36;100.00
26087;BME280;13851;43.434;28.338;2022-11-18T06:38:09;98951.88;;;14.82;100.00
26087;BME280;13851;43.434;28.338;2022-11-18T06:40:34;98749.88;;;13.67;100.00
26087;BME280;13851;43.434;28.338;2022-11-18T06:43:08;98869.56;;;14.19;100.00
26087;BME280;13851;43.434;28.338;2022-11-18T06:45:57;98964.84;;;14.64;100.00
26087;BME280;13851;43.434;28.338;2022-11-18T06:48:42;98821.13;;;13.75;100.00
26087;BME280;13851;43.434;28.338;2022-11-18T06:51:07;98974.34;;;14.68;100.00
26087;BME280;13851;43.434;28.338;2022-11-18T06:53:34;98925.81;;;14.48;100.00
26087;BME280;13851;43.434;28.338;2022-11-18T06:56:07;99010.13;;;15.04;100.00
26087;BME280;13851;43.434;28.338;2022-11-18T06:58:33;98954.66;;;14.82;100.00
26087;BME280;13851;43.434;28.338;2022-11-18T07:01:09;98946.22;;;14.96;100.00
26087;BME280;13851;43.434;28.338;2022-11-18T07:03:36;98863.56;;;14.22;100.00
26087;BME280;13851;43.434;28.338;2022-11-18T07:06:02;98888.81;;;14.74;100.00
26087;BME280;13851;43.434;28.338;2022-11-18T07:08:28;99010.13;;;15.53;100.00
26087;BME280;13851;43.434;28.338;2022-11-18T07:10:54;98954.81;;;15.18;100.00
26087;BME280;13851;43.434;28.338;2022-11-18T07:13:19;98874.38;;;14.91;100.00
26087;BME280;13851;43.434;28.338;2022-11-18T07:15:45;98712.69;;;13.94;100.00
26087;BME280;13851;43.434;28.338;2022-11-18T07:18:11;98927.69;;;15.56;100.00
26087;BME280;13851;43.434;28.338;2022-11-18T07:20:36;98991.41;;;16.08;100.00
26087;BME280;13851;43.434;28.338;2022-11-18T07:23:02;98996.81;;;16.03;100.00
26087;BME280;13851;43.434;28.338;2022-11-18T07:25:27;98981.28;;;15.79;100.00
26087;BME280;13851;43.434;28.338;2022-11-18T07:27:53;98975.75;;;15.91;100.00
26087;BME280;13851;43.434;28.338;2022-11-18T07:30:18;99038.25;;;16.15;100.00
26087;BME280;13851;43.434;28.338;2022-11-18T07:32:44;99004.50;;;16.25;100.00
26087;BME280;13851;43.434;28.338;2022-11-18T07:35:09;98977.59;;;16.08;100.00
26087;BME280;13851;43.434;28.338;2022-11-18T07:37:35;98924.13;;;15.91;100.00
26087;BME280;13851;43.434;28.338;2022-11-18T07:40:01;98866.53;;;15.29;100.00
26087;BME280;13851;43.434;28.338;2022-11-18T07:42:26;99017.00;;;16.04;100.00
26087;BME280;13851;43.434;28.338;2022-11-18T07:44:52;98981.75;;;15.76;100.00
26087;BME280;13851;43.434;28.338;2022-11-18T07:47:17;99005.69;;;15.82;100.00
26087;BME280;13851;43.434;28.338;2022-11-18T07:49:43;98955.03;;;15.58;100.00
26087;BME280;13851;43.434;28.338;2022-11-18T07:52:09;98868.50;;;14.99;100.00
26087;BME280;13851;43.434;28.338;2022-11-18T07:54:35;98929.03;;;15.24;100.00
26087;BME280;13851;43.434;28.338;2022-11-18T07:57:00;98964.41;;;15.57;100.00
26087;BME280;13851;43.434;28.338;2022-11-18T07:59:27;99025.13;;;15.87;100.00
26087;BME280;13851;43.434;28.338;2022-11-18T08:01:52;98911.00;;;15.51;100.00
26087;BME280;13851;43.434;28.338;2022-11-18T08:04:18;98803.66;;;14.96;100.00
26087;BME280;13851;43.434;28.338;2022-11-18T08:06:43;98800.06;;;15.07;100.00
26087;BME280;13851;43.434;28.338;2022-11-18T08:09:10;98871.06;;;15.66;100.00
26087;BME280;13851;43.434;28.338;2022-11-18T08:11:36;98952.50;;;15.98;100.00
26087;BME280;13851;43.434;28.338;2022-11-18T08:14:02;98889.38;;;15.37;100.00
26087;BME280;13851;43.434;28.338;2022-11-18T08:16:28;98987.34;;;16.23;100.00
26087;BME280;13851;43.434;28.338;2022-11-18T08:18:54;98965.47;;;16.33;100.00
26087;BME280;13851;43.434;28.338;2022-11-18T08:21:21;98990.31;;;16.56;100.00
26087;BME280;13851;43.434;28.338;2022-11-18T08:23:54;98990.78;;;16.77;100.00
26087;BME280;13851;43.434;28.338;2022-11-18T08:26:21;98965.41;;;16.56;100.00
26087;BME280;13851;43.434;28.338;2022-11-18T08:28:47;99006.91;;;16.56;100.00
26087;BME280;13851;43.434;28.338;2022-11-18T08:31:20;98999.22;;;16.35;100.00
26087;BME280;13851;43.434;28.338;2022-11-18T08:33:47;98981.06;;;16.16;100.00
26087;BME280;13851;43.434;28.338;2022-11-18T08:36:16;98878.63;;;15.70;100.00
26087;BME280;13851;43.434;28.338;2022-11-18T08:38:42;98825.56;;;15.56;100.00
26087;BME280;13851;43.434;28.338;2022-11-18T08:41:11;98943.94;;;16.35;100.00
26087;BME280;13851;43.434;28.338;2022-11-18T08:43:37;98981.19;;;16.44;100.00
26087;BME280;13851;43.434;28.338;2022-11-18T08:46:02;98919.19;;;16.17;100.00
26087;BME280;13851;43.434;28.338;2022-11-18T08:48:28;98923.44;;;16.07;100.00
26087;BME280;13851;43.434;28.338;2022-11-18T08:50:54;98763.50;;;15.24;100.00
26087;BME280;13851;43.434;28.338;2022-11-18T08:53:19;98799.84;;;15.21;100.00
26087;BME280;13851;43.434;28.338;2022-11-18T08:55:45;98948.41;;;16.13;100.00
26087;BME280;13851;43.434;28.338;2022-11-18T08:58:11;98998.75;;;16.38;100.00
26087;BME280;13851;43.434;28.338;2022-11-18T09:00:36;98995.38;;;16.36;100.00
26087;BME280;13851;43.434;28.338;2022-11-18T09:03:03;98912.50;;;15.89;100.00
26087;BME280;13851;43.434;28.338;2022-11-18T09:05:28;98978.06;;;16.05;100.00
26087;BME280;13851;43.434;28.338;2022-11-18T09:07:54;98976.84;;;15.90;100.00
26087;BME280;13851;43.434;28.338;2022-11-18T09:10:19;99013.25;;;16.10;100.00
26087;BME280;13851;43.434;28.338;2022-11-18T09:12:45;99019.75;;;16.04;100.00
26087;BME280;13851;43.434;28.338;2022-11-18T09:15:10;98942.31;;;15.57;100.00
26087;BME280;13851;43.434;28.338;2022-11-18T09:17:36;99016.97;;;15.92;100.00
26087;BME280;13851;43.434;28.338;2022-11-18T09:20:02;98789.09;;;14.47;100.00
26087;BME280;13851;43.434;28.338;2022-11-18T09:22:27;98979.94;;;15.40;100.00
26087;BME280;13851;43.434;28.338;2022-11-18T09:24:53;98907.03;;;14.75;100.00
26087;BME280;13851;43.434;28.338;2022-11-18T09:27:18;98880.69;;;14.43;100.00
26087;BME280;13851;43.434;28.338;2022-11-18T09:29:44;98935.28;;;14.71;100.00
26087;BME280;13851;43.434;28.338;2022-11-18T09:32:10;99024.94;;;15.40;100.00
26087;BME280;13851;43.434;28.338;2022-11-18T09:34:35;99047.28;;;15.50;100.00
26087;BME280;13851;43.434;28.338;2022-11-18T09:37:04;98939.38;;;14.98;100.00
26087;BME280;13851;43.434;28.338;2022-11-18T09:39:33;99031.19;;;15.66;100.00
26087;BME280;13851;43.434;28.338;2022-11-18T09:45:09;99012.06;;;15.94;100.00
26087;BME280;13851;43.434;28.338;2022-11-18T09:47:38;98961.78;;;15.62;100.00
26087;BME280;13851;43.434;28.338;2022-11-18T09:50:13;99009.28;;;15.94;100.00
26087;BME280;13851;43.434;28.338;2022-11-18T09:55:16;98963.56;;;15.56;100.00
26087;BME280;13851;43.434;28.338;2022-11-18T09:57:48;98976.25;;;15.88;100.00
26087;BME280;13851;43.434;28.338;2022-11-18T10:00:18;99034.31;;;16.23;100.00
26087;BME280;13851;43.434;28.338;2022-11-18T10:05:26;99038.47;;;16.02;100.00
26087;BME280;13851;43.434;28.338;2022-11-18T10:11:12;99028.94;;;15.86;100.00
26087;BME280;13851;43.434;28.338;2022-11-18T10:22:21;98935.63;;;14.93;100.00
26087;BME280;13851;43.434;28.338;2022-11-18T10:24:53;99027.47;;;15.42;100.00
26087;BME280;13851;43.434;28.338;2022-11-18T10:27:21;99034.13;;;15.52;100.00
26087;BME280;13851;43.434;28.338;2022-11-18T10:29:52;98962.34;;;15.41;100.00
26087;BME280;13851;43.434;28.338;2022-11-18T10:32:20;99017.19;;;15.91;100.00
26087;BME280;13851;43.434;28.338;2022-11-18T10:34:51;98920.44;;;15.44;100.00
26087;BME280;13851;43.434;28.338;2022-11-18T10:37:26;99006.31;;;16.07;100.00
26087;BME280;13851;43.434;28.338;2022-11-18T10:39:55;98979.50;;;15.96;100.00
26087;BME280;13851;43.434;28.338;2022-11-18T10:42:25;98965.81;;;16.25;100.00
26087;BME280;13851;43.434;28.338;2022-11-18T10:44:52;98918.97;;;15.95;100.00
26087;BME280;13851;43.434;28.338;2022-11-18T10:47:29;98967.97;;;15.99;100.00
26087;BME280;13851;43.434;28.338;2022-11-18T10:50:28;98950.53;;;15.75;100.00
26087;BME280;13851;43.434;28.338;2022-11-18T10:52:54;98657.94;;;13.86;100.00
26087;BME280;13851;43.434;28.338;2022-11-18T10:55:24;98937.75;;;15.51;100.00
26087;BME280;13851;43.434;28.338;2022-11-18T10:58:00;98993.75;;;15.81;100.00
26087;BME280;13851;43.434;28.338;2022-11-18T11:00:36;98848.09;;;14.88;100.00
26087;BME280;13851;43.434;28.338;2022-11-18T11:05:47;98875.19;;;15.21;100.00
26087;BME280;13851;43.434;28.338;2022-11-18T11:08:21;98744.25;;;14.40;100.00
26087;BME280;13851;43.434;28.338;2022-11-18T11:10:58;99012.03;;;15.82;100.00
26087;BME280;13851;43.434;28.338;2022-11-18T11:13:29;98940.28;;;15.52;100.00
26087;BME280;13851;43.434;28.338;2022-11-18T11:15:59;98919.91;;;15.23;100.00
26087;BME280;13851;43.434;28.338;2022-11-18T11:18:30;98997.34;;;15.70;100.00
26087;BME280;13851;43.434;28.338;2022-11-18T11:21:17;98909.44;;;15.14;100.00
26087;BME280;13851;43.434;28.338;2022-11-18T11:23:44;98867.78;;;14.92;100.00
26087;BME280;13851;43.434;28.338;2022-11-18T11:26:33;98915.03;;;14.95;100.00
26087;BME280;13851;43.434;28.338;2022-11-18T11:32:01;98964.47;;;15.08;100.00
26087;BME280;13851;43.434;28.338;2022-11-18T11:47:37;98988.84;;;15.42;100.00
26087;BME280;13851;43.434;28.338;2022-11-18T12:01:31;98968.19;;;15.86;100.00
26087;BME280;13851;43.434;28.338;2022-11-18T12:04:06;98821.41;;;15.00;100.00
26087;BME280;13851;43.434;28.338;2022-11-18T12:06:34;98946.94;;;15.75;100.00
26087;BME280;13851;43.434;28.338;2022-11-18T12:12:37;98942.25;;;15.64;100.00
26087;BME280;13851;43.434;28.338;2022-11-18T12:15:23;98936.97;;;15.74;100.00
26087;BME280;13851;43.434;28.338;2022-11-18T12:25:53;98928.56;;;15.69;100.00
26087;BME280;13851;43.434;28.338;2022-11-18T12:28:51;98901.63;;;15.41;100.00
26087;BME280;13851;43.434;28.338;2022-11-18T12:33:49;98937.88;;;15.56;100.00
26087;BME280;13851;43.434;28.338;2022-11-18T12:38:50;98777.88;;;14.49;100.00
26087;BME280;13851;43.434;28.338;2022-11-18T12:41:51;98674.25;;;13.88;100.00
26087;BME280;13851;43.434;28.338;2022-11-18T12:44:36;98948.84;;;15.32;100.00
26087;BME280;13851;43.434;28.338;2022-11-18T12:47:05;98881.28;;;15.12;100.00
26087;BME280;13851;43.434;28.338;2022-11-18T12:51:58;98915.75;;;15.44;100.00
26087;BME280;13851;43.434;28.338;2022-11-18T12:54:42;98865.22;;;15.20;100.00
26087;BME280;13851;43.434;28.338;2022-11-18T12:57:20;98854.00;;;15.03;100.00
26087;BME280;13851;43.434;28.338;2022-11-18T12:59:46;98892.97;;;15.37;100.00
26087;BME280;13851;43.434;28.338;2022-11-18T13:02:49;98920.56;;;15.49;100.00
26087;BME280;13851;43.434;28.338;2022-11-18T13:05:21;98911.78;;;15.40;100.00
26087;BME280;13851;43.434;28.338;2022-11-18T13:07:51;98532.13;;;12.78;100.00
26087;BME280;13851;43.434;28.338;2022-11-18T13:10:50;98770.88;;;14.46;100.00
26087;BME280;13851;43.434;28.338;2022-11-18T13:13:31;98789.25;;;14.52;100.00
26087;BME280;13851;43.434;28.338;2022-11-18T13:16:10;98925.59;;;15.40;100.00
26087;BME280;13851;43.434;28.338;2022-11-18T13:18:56;98773.09;;;14.56;100.00
26087;BME280;13851;43.434;28.338;2022-11-18T13:21:24;98879.16;;;15.25;100.00
26087;BME280;13851;43.434;28.338;2022-11-18T13:24:13;98877.00;;;15.39;100.00
26087;BME280;13851;43.434;28.338;2022-11-18T13:26:41;98850.56;;;15.20;100.00
26087;BME280;13851;43.434;28.338;2022-11-18T13:35:12;98797.50;;;14.82;100.00
26087;BME280;13851;43.434;28.338;2022-11-18T13:37:54;98803.50;;;14.79;100.00
26087;BME280;13851;43.434;28.338;2022-11-18T13:42:51;98926.34;;;15.59;100.00
26087;BME280;13851;43.434;28.338;2022-11-18T13:45:17;98883.47;;;15.33;100.00
26087;BME280;13851;43.434;28.338;2022-11-18T13:47:50;98930.19;;;15.46;100.00
26087;BME280;13851;43.434;28.338;2022-11-18T13:50:23;98731.16;;;14.24;100.00
26087;BME280;13851;43.434;28.338;2022-11-18T13:53:03;98919.00;;;15.41;100.00
26087;BME280;13851;43.434;28.338;2022-11-18T13:55:39;98717.00;;;14.20;100.00
26087;BME280;13851;43.434;28.338;2022-11-18T14:00:43;98748.78;;;14.35;100.00
26087;BME280;13851;43.434;28.338;2022-11-18T14:05:55;98706.53;;;14.11;100.00
26087;BME280;13851;43.434;28.338;2022-11-18T14:08:31;98755.94;;;14.24;100.00
26087;BME280;13851;43.434;28.338;2022-11-18T14:10:58;98925.00;;;15.38;100.00
26087;BME280;13851;43.434;28.338;2022-11-18T14:13:35;98859.41;;;14.98;100.00
26087;BME280;13851;43.434;28.338;2022-11-18T14:16:25;98908.63;;;15.25;100.00
26087;BME280;13851;43.434;28.338;2022-11-18T14:18:51;98885.59;;;14.89;100.00
26087;BME280;13851;43.434;28.338;2022-11-18T14:21:30;98810.63;;;14.39;100.00
26087;BME280;13851;43.434;28.338;2022-11-18T14:23:56;98863.75;;;14.76;100.00
26087;BME280;13851;43.434;28.338;2022-11-18T14:28:57;98879.22;;;14.77;100.00
26087;BME280;13851;43.434;28.338;2022-11-18T14:31:28;98818.50;;;14.35;100.00
26087;BME280;13851;43.434;28.338;2022-11-18T14:36:29;98747.00;;;13.92;100.00
26087;BME280;13851;43.434;28.338;2022-11-18T14:38:55;98740.66;;;13.91;100.00
26087;BME280;13851;43.434;28.338;2022-11-18T14:41:21;98913.47;;;14.99;100.00
26087;BME280;13851;43.434;28.338;2022-11-18T14:44:05;98921.28;;;15.02;100.00
26087;BME280;13851;43.434;28.338;2022-11-18T14:46:31;98919.88;;;15.12;100.00
26087;BME280;13851;43.434;28.338;2022-11-18T14:49:01;98904.56;;;15.16;100.00
26087;BME280;13851;43.434;28.338;2022-11-18T14:51:26;98721.09;;;13.99;100.00
26087;BME280;13851;43.434;28.338;2022-11-18T14:53:52;98785.72;;;14.45;100.00